sensor_id;sensor_type;location;lat;lon;timestamp;pressure;altitude;pressure_sealevel;temperature;humidity
53262;BME280;39658;51.090;-1.786;2023-03-26T00:02:01;99556.28;;;7.22;100.00
53262;BME280;39658;51.090;-1.786;2023-03-26T00:04:28;99547.81;;;7.18;100.00
53262;BME280;39658;51.090;-1.786;2023-03-26T00:06:58;99546.97;;;7.17;100.00
53262;BME280;39658;51.090;-1.786;2023-03-26T00:09:26;99537.94;;;7.22;100.00
53262;BME280;39658;51.090;-1.786;2023-03-26T00:11:54;99523.25;;;7.19;100.00
53262;BME280;39658;51.090;-1.786;2023-03-26T00:14:21;99526.75;;;7.19;100.00
53262;BME280;39658;51.090;-1.786;2023-03-26T00:16:48;99509.66;;;7.14;100.00
53262;BME280;39658;51.090;-1.786;2023-03-26T00:19:15;99491.13;;;7.04;100.00
53262;BME280;39658;51.090;-1.786;2023-03-26T00:21:42;99497.59;;;7.11;100.00
53262;BME280;39658;51.090;-1.786;2023-03-26T00:24:10;99503.38;;;7.04;100.00
53262;BME280;39658;51.090;-1.786;2023-03-26T00:26:40;99495.13;;;6.97;100.00
53262;BME280;39658;51.090;-1.786;2023-03-26T00:29:07;99499.09;;;6.90;100.00
53262;BME280;39658;51.090;-1.786;2023-03-26T00:31:35;99499.09;;;6.90;100.00
53262;BME280;39658;51.090;-1.786;2023-03-26T00:34:04;99490.91;;;6.94;100.00
53262;BME280;39658;51.090;-1.786;2023-03-26T00:36:31;99492.31;;;6.87;100.00
53262;BME280;39658;51.090;-1.786;2023-03-26T00:39:00;99489.06;;;6.83;100.00
53262;BME280;39658;51.090;-1.786;2023-03-26T00:41:30;99485.72;;;6.81;100.00
53262;BME280;39658;51.090;-1.786;2023-03-26T00:44:00;99491.69;;;6.83;100.00
53262;BME280;39658;51.090;-1.786;2023-03-26T00:46:29;99485.28;;;6.88;100.00
53262;BME280;39658;51.090;-1.786;2023-03-26T00:48:59;99484.25;;;6.77;100.00
53262;BME280;39658;51.090;-1.786;2023-03-26T00:51:28;99480.91;;;6.75;100.00
53262;BME280;39658;51.090;-1.786;2023-03-26T00:53:56;99485.63;;;6.70;100.00
53262;BME280;39658;51.090;-1.786;2023-03-26T00:56:26;99471.94;;;6.67;100.00
53262;BME280;39658;51.090;-1.786;2023-03-26T00:58:53;99461.22;;;6.57;100.00
53262;BME280;39658;51.090;-1.786;2023-03-26T01:01:50;99461.44;;;6.54;100.00
53262;BME280;39658;51.090;-1.786;2023-03-26T01:04:26;99463.63;;;6.60;100.00
53262;BME280;39658;51.090;-1.786;2023-03-26T01:07:02;99473.50;;;6.56;100.00
53262;BME280;39658;51.090;-1.786;2023-03-26T01:09:33;99463.97;;;6.55;100.00
53262;BME280;39658;51.090;-1.786;2023-03-26T01:12:01;99459.03;;;6.51;100.00
53262;BME280;39658;51.090;-1.786;2023-03-26T01:14:29;99465.34;;;6.48;100.00
53262;BME280;39658;51.090;-1.786;2023-03-26T01:17:00;99457.38;;;6.50;100.00
53262;BME280;39658;51.090;-1.786;2023-03-26T01:19:35;99445.44;;;6.45;100.00
53262;BME280;39658;51.090;-1.786;2023-03-26T01:22:16;99413.00;;;6.22;100.00
53262;BME280;39658;51.090;-1.786;2023-03-26T01:24:54;99373.56;;;6.00;100.00
53262;BME280;39658;51.090;-1.786;2023-03-26T01:27:34;99391.88;;;6.13;100.00
53262;BME280;39658;51.090;-1.786;2023-03-26T01:30:10;99434.03;;;6.34;100.00
53262;BME280;39658;51.090;-1.786;2023-03-26T01:32:48;99417.69;;;6.30;100.00
53262;BME280;39658;51.090;-1.786;2023-03-26T01:35:27;99416.56;;;6.34;100.00
53262;BME280;39658;51.090;-1.786;2023-03-26T01:38:03;99406.41;;;6.29;100.00
53262;BME280;39658;51.090;-1.786;2023-03-26T01:40:41;99411.84;;;6.26;100.00
53262;BME280;39658;51.090;-1.786;2023-03-26T01:43:16;99404.09;;;6.12;100.00
53262;BME280;39658;51.090;-1.786;2023-03-26T01:45:46;99410.06;;;6.14;100.00
53262;BME280;39658;51.090;-1.786;2023-03-26T01:48:14;99408.41;;;6.00;100.00
53262;BME280;39658;51.090;-1.786;2023-03-26T01:50:41;99395.81;;;5.92;100.00
53262;BME280;39658;51.090;-1.786;2023-03-26T01:53:10;99407.94;;;5.81;100.00
53262;BME280;39658;51.090;-1.786;2023-03-26T01:55:47;99403.72;;;5.65;100.00
53262;BME280;39658;51.090;-1.786;2023-03-26T01:58:23;99405.28;;;5.55;100.00
53262;BME280;39658;51.090;-1.786;2023-03-26T02:01:00;99394.59;;;5.45;100.00
53262;BME280;39658;51.090;-1.786;2023-03-26T02:03:30;99390.06;;;5.34;100.00
53262;BME280;39658;51.090;-1.786;2023-03-26T02:06:05;99376.56;;;5.28;100.00
53262;BME280;39658;51.090;-1.786;2023-03-26T02:08:38;99369.88;;;5.24;100.00
53262;BME280;39658;51.090;-1.786;2023-03-26T02:11:10;99369.03;;;5.23;100.00
53262;BME280;39658;51.090;-1.786;2023-03-26T02:13:38;99367.56;;;5.19;100.00
53262;BME280;39658;51.090;-1.786;2023-03-26T02:16:08;99362.66;;;5.14;100.00
53262;BME280;39658;51.090;-1.786;2023-03-26T02:18:35;99349.78;;;5.11;100.00
53262;BME280;39658;51.090;-1.786;2023-03-26T02:21:09;99358.44;;;5.12;100.00
53262;BME280;39658;51.090;-1.786;2023-03-26T02:23:36;99348.50;;;5.04;100.00
53262;BME280;39658;51.090;-1.786;2023-03-26T02:26:06;99350.09;;;5.07;100.00
53262;BME280;39658;51.090;-1.786;2023-03-26T02:28:34;99352.78;;;5.05;100.00
53262;BME280;39658;51.090;-1.786;2023-03-26T02:31:02;99342.66;;;5.00;100.00
53262;BME280;39658;51.090;-1.786;2023-03-26T02:33:29;99340.88;;;5.01;100.00
53262;BME280;39658;51.090;-1.786;2023-03-26T02:35:57;99326.31;;;4.97;100.00
53262;BME280;39658;51.090;-1.786;2023-03-26T02:38:26;99329.69;;;4.99;100.00
53262;BME280;39658;51.090;-1.786;2023-03-26T02:40:54;99330.09;;;4.93;100.00
53262;BME280;39658;51.090;-1.786;2023-03-26T02:43:21;99325.69;;;4.93;100.00
53262;BME280;39658;51.090;-1.786;2023-03-26T02:45:49;99322.44;;;4.90;100.00
53262;BME280;39658;51.090;-1.786;2023-03-26T02:48:16;99321.69;;;4.88;100.00
53262;BME280;39658;51.090;-1.786;2023-03-26T02:50:44;99316.75;;;4.83;100.00
53262;BME280;39658;51.090;-1.786;2023-03-26T02:53:14;99324.41;;;4.86;100.00
53262;BME280;39658;51.090;-1.786;2023-03-26T02:55:41;99316.66;;;4.84;100.00
53262;BME280;39658;51.090;-1.786;2023-03-26T02:58:08;99326.28;;;4.84;100.00
53262;BME280;39658;51.090;-1.786;2023-03-26T03:00:35;99313.63;;;4.78;100.00
53262;BME280;39658;51.090;-1.786;2023-03-26T03:03:03;99319.66;;;4.78;100.00
53262;BME280;39658;51.090;-1.786;2023-03-26T03:05:31;99311.84;;;4.78;100.00
53262;BME280;39658;51.090;-1.786;2023-03-26T03:07:58;99323.25;;;4.77;100.00
53262;BME280;39658;51.090;-1.786;2023-03-26T03:10:26;99312.69;;;4.79;100.00
53262;BME280;39658;51.090;-1.786;2023-03-26T03:12:57;99312.78;;;4.77;100.00
53262;BME280;39658;51.090;-1.786;2023-03-26T03:15:24;99310.38;;;4.74;100.00
53262;BME280;39658;51.090;-1.786;2023-03-26T03:17:51;99303.56;;;4.72;100.00
53262;BME280;39658;51.090;-1.786;2023-03-26T03:20:19;99301.25;;;4.67;100.00
53262;BME280;39658;51.090;-1.786;2023-03-26T03:22:46;99304.88;;;4.64;100.00
53262;BME280;39658;51.090;-1.786;2023-03-26T03:25:13;99304.25;;;4.61;100.00
53262;BME280;39658;51.090;-1.786;2023-03-26T03:27:42;99306.78;;;4.62;100.00
53262;BME280;39658;51.090;-1.786;2023-03-26T03:30:10;99306.13;;;4.59;100.00
53262;BME280;39658;51.090;-1.786;2023-03-26T03:32:37;99309.69;;;4.58;100.00
53262;BME280;39658;51.090;-1.786;2023-03-26T03:35:05;99310.69;;;4.55;100.00
53262;BME280;39658;51.090;-1.786;2023-03-26T03:37:33;99300.25;;;4.55;100.00
53262;BME280;39658;51.090;-1.786;2023-03-26T03:40:00;99302.97;;;4.54;100.00
53262;BME280;39658;51.090;-1.786;2023-03-26T03:42:30;99308.09;;;4.55;100.00
53262;BME280;39658;51.090;-1.786;2023-03-26T03:44:56;99304.22;;;4.48;100.00
53262;BME280;39658;51.090;-1.786;2023-03-26T03:47:23;99309.25;;;4.51;100.00
53262;BME280;39658;51.090;-1.786;2023-03-26T03:49:50;99307.56;;;4.50;100.00
53262;BME280;39658;51.090;-1.786;2023-03-26T03:52:18;99303.56;;;4.44;100.00
53262;BME280;39658;51.090;-1.786;2023-03-26T03:54:46;99310.25;;;4.48;100.00
53262;BME280;39658;51.090;-1.786;2023-03-26T03:57:13;99317.34;;;4.46;100.00
53262;BME280;39658;51.090;-1.786;2023-03-26T03:59:40;99297.06;;;4.37;100.00
53262;BME280;39658;51.090;-1.786;2023-03-26T04:02:07;99307.09;;;4.43;100.00
53262;BME280;39658;51.090;-1.786;2023-03-26T04:04:35;99312.97;;;4.47;100.00
53262;BME280;39658;51.090;-1.786;2023-03-26T04:07:02;99299.28;;;4.43;100.00
53262;BME280;39658;51.090;-1.786;2023-03-26T04:09:29;99309.44;;;4.48;100.00
53262;BME280;39658;51.090;-1.786;2023-03-26T04:11:57;99319.88;;;4.48;100.00
53262;BME280;39658;51.090;-1.786;2023-03-26T04:14:23;99311.41;;;4.44;100.00
53262;BME280;39658;51.090;-1.786;2023-03-26T04:16:50;99318.94;;;4.49;100.00
53262;BME280;39658;51.090;-1.786;2023-03-26T04:19:17;99315.47;;;4.48;100.00
53262;BME280;39658;51.090;-1.786;2023-03-26T04:21:44;99318.94;;;4.49;100.00
53262;BME280;39658;51.090;-1.786;2023-03-26T04:24:10;99322.47;;;4.48;100.00
53262;BME280;39658;51.090;-1.786;2023-03-26T04:26:38;99318.09;;;4.48;100.00
53262;BME280;39658;51.090;-1.786;2023-03-26T04:29:07;99310.06;;;4.52;100.00
53262;BME280;39658;51.090;-1.786;2023-03-26T04:31:37;99298.34;;;4.44;100.00
53262;BME280;39658;51.090;-1.786;2023-03-26T04:34:06;99297.97;;;4.51;100.00
53262;BME280;39658;51.090;-1.786;2023-03-26T04:36:38;99305.19;;;4.60;100.00
53262;BME280;39658;51.090;-1.786;2023-03-26T04:39:09;99304.06;;;4.64;100.00
53262;BME280;39658;51.090;-1.786;2023-03-26T04:41:37;99299.88;;;4.61;100.00
53262;BME280;39658;51.090;-1.786;2023-03-26T04:44:04;99301.56;;;4.62;100.00
53262;BME280;39658;51.090;-1.786;2023-03-26T04:46:32;99305.84;;;4.63;100.00
53262;BME280;39658;51.090;-1.786;2023-03-26T04:49:00;99307.50;;;4.64;100.00
53262;BME280;39658;51.090;-1.786;2023-03-26T04:51:32;99304.66;;;4.55;100.00
53262;BME280;39658;51.090;-1.786;2023-03-26T04:54:03;99308.19;;;4.54;100.00
53262;BME280;39658;51.090;-1.786;2023-03-26T04:56:37;99310.16;;;4.50;100.00
53262;BME280;39658;51.090;-1.786;2023-03-26T04:59:09;99298.66;;;4.40;100.00
53262;BME280;39658;51.090;-1.786;2023-03-26T05:01:39;99312.44;;;4.42;100.00
53262;BME280;39658;51.090;-1.786;2023-03-26T05:04:06;99307.09;;;4.43;100.00
53262;BME280;39658;51.090;-1.786;2023-03-26T05:06:33;99315.66;;;4.45;100.00
53262;BME280;39658;51.090;-1.786;2023-03-26T05:09:02;99319.97;;;4.46;100.00
53262;BME280;39658;51.090;-1.786;2023-03-26T05:11:29;99319.88;;;4.48;100.00
53262;BME280;39658;51.090;-1.786;2023-03-26T05:13:56;99317.31;;;4.61;100.00
53262;BME280;39658;51.090;-1.786;2023-03-26T05:16:23;99308.59;;;4.47;100.00
53262;BME280;39658;51.090;-1.786;2023-03-26T05:18:51;99325.63;;;4.53;100.00
53262;BME280;39658;51.090;-1.786;2023-03-26T05:21:18;99320.78;;;4.47;100.00
53262;BME280;39658;51.090;-1.786;2023-03-26T05:23:46;99323.22;;;4.50;100.00
53262;BME280;39658;51.090;-1.786;2023-03-26T05:26:13;99327.69;;;4.48;100.00
53262;BME280;39658;51.090;-1.786;2023-03-26T05:28:40;99331.22;;;4.47;100.00
53262;BME280;39658;51.090;-1.786;2023-03-26T05:31:07;99340.03;;;4.46;100.00
53262;BME280;39658;51.090;-1.786;2023-03-26T05:33:35;99340.84;;;4.46;100.00
53262;BME280;39658;51.090;-1.786;2023-03-26T05:36:05;99345.34;;;4.44;100.00
53262;BME280;39658;51.090;-1.786;2023-03-26T05:38:34;99350.47;;;4.46;100.00
53262;BME280;39658;51.090;-1.786;2023-03-26T05:41:02;99352.66;;;4.52;100.00
53262;BME280;39658;51.090;-1.786;2023-03-26T05:43:30;99351.91;;;4.50;100.00
53262;BME280;39658;51.090;-1.786;2023-03-26T05:45:57;99350.91;;;4.53;100.00
53262;BME280;39658;51.090;-1.786;2023-03-26T05:48:24;99350.81;;;4.54;100.00
53262;BME280;39658;51.090;-1.786;2023-03-26T05:50:53;99359.47;;;4.55;100.00
53262;BME280;39658;51.090;-1.786;2023-03-26T05:53:22;99359.28;;;4.58;100.00
53262;BME280;39658;51.090;-1.786;2023-03-26T05:55:50;99363.84;;;4.54;100.00
53262;BME280;39658;51.090;-1.786;2023-03-26T05:58:20;99355.25;;;4.52;100.00
53262;BME280;39658;51.090;-1.786;2023-03-26T06:00:47;99343.75;;;4.42;100.00
53262;BME280;39658;51.090;-1.786;2023-03-26T06:03:14;99371.88;;;4.51;100.00
53262;BME280;39658;51.090;-1.786;2023-03-26T06:05:41;99370.19;;;4.50;100.00
53262;BME280;39658;51.090;-1.786;2023-03-26T06:08:08;99368.53;;;4.49;100.00
53262;BME280;39658;51.090;-1.786;2023-03-26T06:14:02;99377.19;;;4.49;100.00
53262;BME280;39658;51.090;-1.786;2023-03-26T06:16:29;99380.63;;;4.50;100.00
53262;BME280;39658;51.090;-1.786;2023-03-26T06:18:56;99380.72;;;4.48;100.00
53262;BME280;39658;51.090;-1.786;2023-03-26T06:21:23;99371.44;;;4.44;100.00
53262;BME280;39658;51.090;-1.786;2023-03-26T06:23:50;99353.16;;;4.30;100.00
53262;BME280;39658;51.090;-1.786;2023-03-26T06:26:17;99387.72;;;4.48;100.00
53262;BME280;39658;51.090;-1.786;2023-03-26T06:28:45;99398.81;;;4.52;100.00
53262;BME280;39658;51.090;-1.786;2023-03-26T06:31:13;99389.88;;;4.56;100.00
53262;BME280;39658;51.090;-1.786;2023-03-26T06:33:41;99402.72;;;4.59;100.00
53262;BME280;39658;51.090;-1.786;2023-03-26T06:36:08;99399.44;;;4.55;100.00
53262;BME280;39658;51.090;-1.786;2023-03-26T06:38:35;99401.88;;;4.58;100.00
53262;BME280;39658;51.090;-1.786;2023-03-26T06:41:02;99406.41;;;4.69;100.00
53262;BME280;39658;51.090;-1.786;2023-03-26T06:43:29;99402.25;;;4.66;100.00
53262;BME280;39658;51.090;-1.786;2023-03-26T06:45:58;99411.94;;;4.64;100.00
53262;BME280;39658;51.090;-1.786;2023-03-26T06:48:27;99422.09;;;4.69;100.00
53262;BME280;39658;51.090;-1.786;2023-03-26T06:50:54;99412.03;;;4.63;100.00
53262;BME280;39658;51.090;-1.786;2023-03-26T06:53:20;99411.00;;;4.65;100.00
53262;BME280;39658;51.090;-1.786;2023-03-26T06:55:47;99416.66;;;4.72;100.00
53262;BME280;39658;51.090;-1.786;2023-03-26T06:58:14;99425.28;;;4.74;100.00
53262;BME280;39658;51.090;-1.786;2023-03-26T07:00:41;99410.09;;;4.66;100.00
53262;BME280;39658;51.090;-1.786;2023-03-26T07:03:08;99406.06;;;4.61;100.00
53262;BME280;39658;51.090;-1.786;2023-03-26T07:05:40;99441.13;;;4.71;100.00
53262;BME280;39658;51.090;-1.786;2023-03-26T07:08:09;99445.97;;;4.77;100.00
53262;BME280;39658;51.090;-1.786;2023-03-26T07:10:37;99451.81;;;4.81;100.00
53262;BME280;39658;51.090;-1.786;2023-03-26T07:13:05;99461.88;;;4.87;100.00
53262;BME280;39658;51.090;-1.786;2023-03-26T07:15:31;99464.59;;;4.85;100.00
53262;BME280;39658;51.090;-1.786;2023-03-26T07:17:58;99467.13;;;4.87;100.00
53262;BME280;39658;51.090;-1.786;2023-03-26T07:20:26;99473.84;;;4.91;100.00
53262;BME280;39658;51.090;-1.786;2023-03-26T07:23:32;99419.41;;;4.56;100.00
53262;BME280;39658;51.090;-1.786;2023-03-26T08:03:28;99533.31;;;5.42;100.00
53262;BME280;39658;51.090;-1.786;2023-03-26T08:06:04;99539.41;;;5.43;100.00
53262;BME280;39658;51.090;-1.786;2023-03-26T08:08:36;99536.69;;;5.44;100.00
53262;BME280;39658;51.090;-1.786;2023-03-26T08:11:17;99550.00;;;5.54;100.00
53262;BME280;39658;51.090;-1.786;2023-03-26T08:13:58;99543.09;;;5.53;100.00
53262;BME280;39658;51.090;-1.786;2023-03-26T08:16:31;99554.63;;;5.50;100.00
53262;BME280;39658;51.090;-1.786;2023-03-26T08:19:06;99556.75;;;5.58;100.00
53262;BME280;39658;51.090;-1.786;2023-03-26T08:21:41;99561.69;;;5.63;100.00
53262;BME280;39658;51.090;-1.786;2023-03-26T08:24:17;99555.50;;;5.64;100.00
53262;BME280;39658;51.090;-1.786;2023-03-26T08:26:52;99566.50;;;5.69;100.00
53262;BME280;39658;51.090;-1.786;2023-03-26T08:29:27;99567.25;;;5.71;100.00
53262;BME280;39658;51.090;-1.786;2023-03-26T08:31:57;99573.19;;;5.87;100.00
53262;BME280;39658;51.090;-1.786;2023-03-26T08:34:27;99572.78;;;5.93;100.00
53262;BME280;39658;51.090;-1.786;2023-03-26T08:36:54;99574.69;;;6.04;100.00
53262;BME280;39658;51.090;-1.786;2023-03-26T08:39:21;99577.75;;;6.11;100.00
53262;BME280;39658;51.090;-1.786;2023-03-26T08:42:14;99582.59;;;6.17;100.00
53262;BME280;39658;51.090;-1.786;2023-03-26T08:45:19;99594.97;;;6.28;100.00
53262;BME280;39658;51.090;-1.786;2023-03-26T08:48:16;99596.31;;;6.21;100.00
53262;BME280;39658;51.090;-1.786;2023-03-26T08:51:15;99605.53;;;6.26;100.00
53262;BME280;39658;51.090;-1.786;2023-03-26T08:54:11;99603.97;;;6.24;100.00
53262;BME280;39658;51.090;-1.786;2023-03-26T08:56:48;99612.25;;;6.31;100.00
53262;BME280;39658;51.090;-1.786;2023-03-26T09:02:39;99611.41;;;6.30;100.00
53262;BME280;39658;51.090;-1.786;2023-03-26T09:08:31;99617.00;;;6.51;100.00
53262;BME280;39658;51.090;-1.786;2023-03-26T09:11:24;99624.06;;;6.63;100.00
53262;BME280;39658;51.090;-1.786;2023-03-26T09:14:35;99633.91;;;6.73;100.00
53262;BME280;39658;51.090;-1.786;2023-03-26T09:17:37;99631.50;;;6.82;100.00
53262;BME280;39658;51.090;-1.786;2023-03-26T09:20:35;99642.38;;;6.89;100.00
53262;BME280;39658;51.090;-1.786;2023-03-26T09:26:30;99642.59;;;7.25;100.00
53262;BME280;39658;51.090;-1.786;2023-03-26T09:35:36;99653.06;;;7.50;100.00
53262;BME280;39658;51.090;-1.786;2023-03-26T09:38:24;99654.09;;;7.48;100.00
53262;BME280;39658;51.090;-1.786;2023-03-26T09:41:01;99642.75;;;7.60;100.00
53262;BME280;39658;51.090;-1.786;2023-03-26T09:44:07;99651.53;;;7.96;100.00
53262;BME280;39658;51.090;-1.786;2023-03-26T09:46:48;99669.84;;;8.46;100.00
53262;BME280;39658;51.090;-1.786;2023-03-26T09:49:31;99670.13;;;9.12;100.00
53262;BME280;39658;51.090;-1.786;2023-03-26T09:52:15;99667.84;;;9.30;100.00
53262;BME280;39658;51.090;-1.786;2023-03-26T09:58:03;99667.34;;;9.82;100.00
53262;BME280;39658;51.090;-1.786;2023-03-26T10:00:39;99665.34;;;10.18;100.00
53262;BME280;39658;51.090;-1.786;2023-03-26T10:03:21;99654.44;;;10.34;100.00
53262;BME280;39658;51.090;-1.786;2023-03-26T10:06:01;99671.56;;;10.17;100.00
53262;BME280;39658;51.090;-1.786;2023-03-26T10:08:48;99676.53;;;9.87;100.00
53262;BME280;39658;51.090;-1.786;2023-03-26T10:11:22;99679.94;;;9.56;100.00
53262;BME280;39658;51.090;-1.786;2023-03-26T10:14:03;99688.19;;;9.62;100.00
53262;BME280;39658;51.090;-1.786;2023-03-26T10:16:40;99690.81;;;9.62;100.00
53262;BME280;39658;51.090;-1.786;2023-03-26T10:19:28;99704.09;;;9.38;100.00
53262;BME280;39658;51.090;-1.786;2023-03-26T10:22:10;99701.97;;;8.85;100.00
53262;BME280;39658;51.090;-1.786;2023-03-26T10:24:52;99720.09;;;8.77;100.00
53262;BME280;39658;51.090;-1.786;2023-03-26T10:27:32;99722.94;;;8.98;100.00
53262;BME280;39658;51.090;-1.786;2023-03-26T10:30:21;99728.69;;;9.14;100.00
53262;BME280;39658;51.090;-1.786;2023-03-26T10:33:05;99738.63;;;9.33;100.00
53262;BME280;39658;51.090;-1.786;2023-03-26T10:35:49;99735.81;;;9.48;100.00
53262;BME280;39658;51.090;-1.786;2023-03-26T10:38:23;99743.34;;;9.64;100.00
53262;BME280;39658;51.090;-1.786;2023-03-26T10:41:00;99746.94;;;9.85;100.00
53262;BME280;39658;51.090;-1.786;2023-03-26T10:43:43;99758.03;;;10.00;100.00
53262;BME280;39658;51.090;-1.786;2023-03-26T10:46:30;99765.19;;;10.10;100.00
53262;BME280;39658;51.090;-1.786;2023-03-26T10:49:44;99768.56;;;10.00;100.00
53262;BME280;39658;51.090;-1.786;2023-03-26T10:52:17;99778.16;;;9.90;100.00
53262;BME280;39658;51.090;-1.786;2023-03-26T10:54:52;99787.38;;;9.62;100.00
53262;BME280;39658;51.090;-1.786;2023-03-26T10:57:36;99789.66;;;9.66;100.00
53262;BME280;39658;51.090;-1.786;2023-03-26T11:00:14;99796.44;;;10.14;100.00
53262;BME280;39658;51.090;-1.786;2023-03-26T11:02:45;99806.16;;;10.14;100.00
53262;BME280;39658;51.090;-1.786;2023-03-26T11:05:30;99808.53;;;9.83;100.00
53262;BME280;39658;51.090;-1.786;2023-03-26T11:08:09;99811.28;;;9.70;100.00
53262;BME280;39658;51.090;-1.786;2023-03-26T11:10:46;99820.47;;;9.53;100.00
53262;BME280;39658;51.090;-1.786;2023-03-26T11:13:24;99826.41;;;9.32;100.00
53262;BME280;39658;51.090;-1.786;2023-03-26T11:15:56;99825.38;;;9.11;100.00
53262;BME280;39658;51.090;-1.786;2023-03-26T11:18:33;99827.13;;;8.99;100.00
53262;BME280;39658;51.090;-1.786;2023-03-26T11:21:07;99839.06;;;9.27;100.00
53262;BME280;39658;51.090;-1.786;2023-03-26T11:23:39;99844.63;;;9.47;100.00
53262;BME280;39658;51.090;-1.786;2023-03-26T11:26:14;99849.22;;;9.67;100.00
53262;BME280;39658;51.090;-1.786;2023-03-26T11:29:00;99855.34;;;9.79;100.00
53262;BME280;39658;51.090;-1.786;2023-03-26T11:31:41;99856.31;;;10.01;100.00
53262;BME280;39658;51.090;-1.786;2023-03-26T11:34:13;99850.94;;;10.14;100.00
53262;BME280;39658;51.090;-1.786;2023-03-26T11:36:45;99858.41;;;10.75;100.00
53262;BME280;39658;51.090;-1.786;2023-03-26T11:39:19;99853.69;;;11.55;100.00
53262;BME280;39658;51.090;-1.786;2023-03-26T11:41:51;99849.41;;;11.63;100.00
53262;BME280;39658;51.090;-1.786;2023-03-26T11:44:22;99865.28;;;12.56;100.00
53262;BME280;39658;51.090;-1.786;2023-03-26T11:46:53;99859.34;;;12.23;100.00
53262;BME280;39658;51.090;-1.786;2023-03-26T11:49:24;99865.47;;;12.24;100.00
53262;BME280;39658;51.090;-1.786;2023-03-26T11:51:53;99870.47;;;11.96;100.00
53262;BME280;39658;51.090;-1.786;2023-03-26T11:54:20;99880.63;;;12.62;100.00
53262;BME280;39658;51.090;-1.786;2023-03-26T11:56:49;99878.63;;;13.63;100.00
53262;BME280;39658;51.090;-1.786;2023-03-26T11:59:19;99871.41;;;16.80;100.00
53262;BME280;39658;51.090;-1.786;2023-03-26T12:01:49;99872.09;;;18.14;100.00
53262;BME280;39658;51.090;-1.786;2023-03-26T12:04:18;99878.16;;;17.66;100.00
53262;BME280;39658;51.090;-1.786;2023-03-26T12:06:55;99887.22;;;16.81;100.00
53262;BME280;39658;51.090;-1.786;2023-03-26T12:09:24;99883.97;;;17.86;100.00
53262;BME280;39658;51.090;-1.786;2023-03-26T12:11:53;99889.84;;;19.93;100.00
53262;BME280;39658;51.090;-1.786;2023-03-26T12:14:26;99905.88;;;16.12;100.00
53262;BME280;39658;51.090;-1.786;2023-03-26T12:16:59;99918.03;;;13.96;100.00
53262;BME280;39658;51.090;-1.786;2023-03-26T12:19:34;99921.69;;;12.66;100.00
53262;BME280;39658;51.090;-1.786;2023-03-26T12:22:02;99932.56;;;11.90;100.00
53262;BME280;39658;51.090;-1.786;2023-03-26T12:24:30;99945.66;;;11.38;100.00
53262;BME280;39658;51.090;-1.786;2023-03-26T12:26:59;99945.75;;;11.16;100.00
53262;BME280;39658;51.090;-1.786;2023-03-26T12:29:28;99951.56;;;11.63;100.00
53262;BME280;39658;51.090;-1.786;2023-03-26T12:32:04;99945.66;;;12.13;100.00
53262;BME280;39658;51.090;-1.786;2023-03-26T12:34:32;99952.81;;;12.22;100.00
53262;BME280;39658;51.090;-1.786;2023-03-26T12:37:01;99965.56;;;11.96;100.00
53262;BME280;39658;51.090;-1.786;2023-03-26T12:39:37;99973.22;;;11.78;100.00
53262;BME280;39658;51.090;-1.786;2023-03-26T12:42:05;99969.97;;;12.28;100.00
53262;BME280;39658;51.090;-1.786;2023-03-26T12:44:51;99975.13;;;11.76;100.00
53262;BME280;39658;51.090;-1.786;2023-03-26T12:47:20;99991.47;;;11.37;100.00
53262;BME280;39658;51.090;-1.786;2023-03-26T12:49:49;100004.22;;;11.32;100.00
53262;BME280;39658;51.090;-1.786;2023-03-26T12:52:29;100003.31;;;10.88;100.00
53262;BME280;39658;51.090;-1.786;2023-03-26T12:55:09;100012.81;;;10.68;100.00
53262;BME280;39658;51.090;-1.786;2023-03-26T12:57:44;100019.13;;;10.76;100.00
53262;BME280;39658;51.090;-1.786;2023-03-26T13:00:39;100015.78;;;11.96;100.00
53262;BME280;39658;51.090;-1.786;2023-03-26T13:03:29;100017.88;;;12.96;100.00
53262;BME280;39658;51.090;-1.786;2023-03-26T13:06:14;100015.06;;;12.57;100.00
53262;BME280;39658;51.090;-1.786;2023-03-26T13:09:10;100043.41;;;11.80;100.00
53262;BME280;39658;51.090;-1.786;2023-03-26T13:11:53;100048.50;;;10.94;100.00
53262;BME280;39658;51.090;-1.786;2023-03-26T13:14:42;100063.22;;;10.16;100.00
53262;BME280;39658;51.090;-1.786;2023-03-26T13:17:20;100077.41;;;9.78;100.00
53262;BME280;39658;51.090;-1.786;2023-03-26T13:19:57;100090.03;;;9.62;100.00
53262;BME280;39658;51.090;-1.786;2023-03-26T13:22:34;100093.94;;;9.56;100.00
53262;BME280;39658;51.090;-1.786;2023-03-26T13:25:09;100102.66;;;9.57;100.00
53262;BME280;39658;51.090;-1.786;2023-03-26T13:27:51;100111.00;;;9.50;100.00
53262;BME280;39658;51.090;-1.786;2023-03-26T13:30:23;100115.66;;;9.47;100.00
53262;BME280;39658;51.090;-1.786;2023-03-26T13:33:01;100127.09;;;9.59;100.00
53262;BME280;39658;51.090;-1.786;2023-03-26T13:35:34;100130.13;;;9.65;100.00
53262;BME280;39658;51.090;-1.786;2023-03-26T13:38:10;100133.22;;;9.83;100.00
53262;BME280;39658;51.090;-1.786;2023-03-26T13:40:45;100139.75;;;10.15;100.00
53262;BME280;39658;51.090;-1.786;2023-03-26T13:43:45;100142.16;;;10.18;100.00
53262;BME280;39658;51.090;-1.786;2023-03-26T13:46:24;100149.59;;;10.00;100.00
53262;BME280;39658;51.090;-1.786;2023-03-26T13:48:57;100159.72;;;9.93;100.00
53262;BME280;39658;51.090;-1.786;2023-03-26T13:51:30;100166.16;;;9.65;100.00
53262;BME280;39658;51.090;-1.786;2023-03-26T13:54:01;100174.16;;;9.50;100.00
53262;BME280;39658;51.090;-1.786;2023-03-26T13:56:32;100182.47;;;9.44;100.00
53262;BME280;39658;51.090;-1.786;2023-03-26T13:59:06;100200.09;;;9.31;100.00
53262;BME280;39658;51.090;-1.786;2023-03-26T14:01:39;100201.13;;;9.28;100.00
53262;BME280;39658;51.090;-1.786;2023-03-26T14:04:14;100205.34;;;9.31;100.00
53262;BME280;39658;51.090;-1.786;2023-03-26T14:06:49;100195.91;;;12.33;100.00
53262;BME280;39658;51.090;-1.786;2023-03-26T14:09:25;100196.09;;;12.53;100.00
53262;BME280;39658;51.090;-1.786;2023-03-26T14:12:13;100202.50;;;11.61;100.00
53262;BME280;39658;51.090;-1.786;2023-03-26T14:14:46;100212.59;;;12.01;100.00
53262;BME280;39658;51.090;-1.786;2023-03-26T14:17:17;100207.38;;;10.98;100.00
53262;BME280;39658;51.090;-1.786;2023-03-26T14:20:19;100221.88;;;10.33;100.00